sensor_id;sensor_type;location;lat;lon;timestamp;temperature;humidity
40696;DHT22;40425;51.102;17.208;2022-11-20T00:01:45;-3.30;99.90
40696;DHT22;40425;51.102;17.208;2022-11-20T00:06:46;-3.40;99.90
40696;DHT22;40425;51.102;17.208;2022-11-20T00:11:47;-3.50;99.90
40696;DHT22;40425;51.102;17.208;2022-11-20T00:16:48;-3.60;99.90
40696;DHT22;40425;51.102;17.208;2022-11-20T00:21:49;-3.50;99.90
40696;DHT22;40425;51.102;17.208;2022-11-20T00:26:51;-3.40;99.90
40696;DHT22;40425;51.102;17.208;2022-11-20T00:31:52;-3.40;99.90
40696;DHT22;40425;51.102;17.208;2022-11-20T00:36:53;-3.30;99.90
40696;DHT22;40425;51.102;17.208;2022-11-20T00:41:54;-3.30;99.90
40696;DHT22;40425;51.102;17.208;2022-11-20T00:46:55;-3.20;99.90
40696;DHT22;40425;51.102;17.208;2022-11-20T00:51:56;-3.30;99.90
40696;DHT22;40425;51.102;17.208;2022-11-20T00:56:57;-3.30;99.90
40696;DHT22;40425;51.102;17.208;2022-11-20T01:02:00;-3.50;99.90
40696;DHT22;40425;51.102;17.208;2022-11-20T01:07:01;-3.60;99.90
40696;DHT22;40425;51.102;17.208;2022-11-20T01:12:02;-3.50;99.90
40696;DHT22;40425;51.102;17.208;2022-11-20T01:17:03;-3.50;99.90
40696;DHT22;40425;51.102;17.208;2022-11-20T01:22:05;-3.70;99.90
40696;DHT22;40425;51.102;17.208;2022-11-20T01:27:06;-3.70;99.90
40696;DHT22;40425;51.102;17.208;2022-11-20T01:32:06;-3.60;99.90
40696;DHT22;40425;51.102;17.208;2022-11-20T01:37:07;-3.60;99.90
40696;DHT22;40425;51.102;17.208;2022-11-20T01:42:08;-3.80;99.90
40696;DHT22;40425;51.102;17.208;2022-11-20T01:47:44;-3.80;99.90
40696;DHT22;40425;51.102;17.208;2022-11-20T01:52:51;-3.80;99.90
40696;DHT22;40425;51.102;17.208;2022-11-20T01:57:53;-3.70;99.90
40696;DHT22;40425;51.102;17.208;2022-11-20T02:03:06;-3.70;99.90
40696;DHT22;40425;51.102;17.208;2022-11-20T02:08:07;-3.90;99.90
40696;DHT22;40425;51.102;17.208;2022-11-20T02:13:08;-3.90;99.90
40696;DHT22;40425;51.102;17.208;2022-11-20T02:18:28;-3.90;99.90
40696;DHT22;40425;51.102;17.208;2022-11-20T02:23:39;-3.90;99.90
40696;DHT22;40425;51.102;17.208;2022-11-20T02:28:44;-4.00;99.90
40696;DHT22;40425;51.102;17.208;2022-11-20T02:33:45;-3.90;99.90
40696;DHT22;40425;51.102;17.208;2022-11-20T02:38:46;-3.90;99.90
40696;DHT22;40425;51.102;17.208;2022-11-20T02:43:46;-3.80;99.90
40696;DHT22;40425;51.102;17.208;2022-11-20T02:48:47;-3.80;99.90
40696;DHT22;40425;51.102;17.208;2022-11-20T02:53:48;-3.80;99.90
40696;DHT22;40425;51.102;17.208;2022-11-20T02:58:49;-3.80;99.90
40696;DHT22;40425;51.102;17.208;2022-11-20T03:03:50;-3.90;99.90
40696;DHT22;40425;51.102;17.208;2022-11-20T03:08:52;-4.10;99.90
40696;DHT22;40425;51.102;17.208;2022-11-20T03:13:53;-4.00;99.90
40696;DHT22;40425;51.102;17.208;2022-11-20T03:18:54;-3.90;99.90
40696;DHT22;40425;51.102;17.208;2022-11-20T03:23:55;-4.00;99.90
40696;DHT22;40425;51.102;17.208;2022-11-20T03:29:01;-4.20;99.90
40696;DHT22;40425;51.102;17.208;2022-11-20T03:34:03;-4.20;99.90
40696;DHT22;40425;51.102;17.208;2022-11-20T03:39:04;-4.30;99.90
40696;DHT22;40425;51.102;17.208;2022-11-20T03:44:09;-4.30;99.90
40696;DHT22;40425;51.102;17.208;2022-11-20T03:49:10;-4.20;99.90
40696;DHT22;40425;51.102;17.208;2022-11-20T03:54:11;-4.20;99.90
40696;DHT22;40425;51.102;17.208;2022-11-20T03:59:12;-4.30;99.90
40696;DHT22;40425;51.102;17.208;2022-11-20T04:04:13;-4.30;99.90
40696;DHT22;40425;51.102;17.208;2022-11-20T04:09:16;-4.20;99.90
40696;DHT22;40425;51.102;17.208;2022-11-20T04:14:17;-4.30;99.90
40696;DHT22;40425;51.102;17.208;2022-11-20T04:19:18;-4.30;99.90
40696;DHT22;40425;51.102;17.208;2022-11-20T04:24:19;-4.30;99.90
40696;DHT22;40425;51.102;17.208;2022-11-20T04:29:20;-4.30;99.90
40696;DHT22;40425;51.102;17.208;2022-11-20T04:34:21;-4.50;99.90
40696;DHT22;40425;51.102;17.208;2022-11-20T04:39:25;-4.90;99.90
40696;DHT22;40425;51.102;17.208;2022-11-20T04:44:47;-4.70;99.90
40696;DHT22;40425;51.102;17.208;2022-11-20T04:49:47;-4.60;99.90
40696;DHT22;40425;51.102;17.208;2022-11-20T04:54:48;-4.60;99.90
40696;DHT22;40425;51.102;17.208;2022-11-20T04:59:49;-4.40;99.90
40696;DHT22;40425;51.102;17.208;2022-11-20T05:04:50;-4.40;99.90
40696;DHT22;40425;51.102;17.208;2022-11-20T05:09:50;-4.40;99.90
40696;DHT22;40425;51.102;17.208;2022-11-20T05:14:51;-4.60;99.90
40696;DHT22;40425;51.102;17.208;2022-11-20T05:19:52;-4.60;99.90
40696;DHT22;40425;51.102;17.208;2022-11-20T05:24:53;-4.60;99.90
40696;DHT22;40425;51.102;17.208;2022-11-20T05:29:54;-4.60;99.90
40696;DHT22;40425;51.102;17.208;2022-11-20T05:34:55;-4.70;99.90
40696;DHT22;40425;51.102;17.208;2022-11-20T05:39:56;-4.80;99.90
40696;DHT22;40425;51.102;17.208;2022-11-20T05:45:00;-4.80;99.90
40696;DHT22;40425;51.102;17.208;2022-11-20T05:50:02;-4.80;99.90
40696;DHT22;40425;51.102;17.208;2022-11-20T05:55:03;-4.80;99.90
40696;DHT22;40425;51.102;17.208;2022-11-20T06:00:04;-4.90;99.90
40696;DHT22;40425;51.102;17.208;2022-11-20T06:05:07;-4.90;99.90
40696;DHT22;40425;51.102;17.208;2022-11-20T06:10:08;-4.90;99.90
40696;DHT22;40425;51.102;17.208;2022-11-20T06:15:09;-4.80;99.90
40696;DHT22;40425;51.102;17.208;2022-11-20T06:20:10;-4.60;99.90
40696;DHT22;40425;51.102;17.208;2022-11-20T06:25:11;-4.80;99.90
40696;DHT22;40425;51.102;17.208;2022-11-20T06:30:12;-4.70;99.90
40696;DHT22;40425;51.102;17.208;2022-11-20T06:35:13;-4.80;99.90
40696;DHT22;40425;51.102;17.208;2022-11-20T06:40:14;-4.80;99.90
40696;DHT22;40425;51.102;17.208;2022-11-20T06:45:15;-4.90;99.90
40696;DHT22;40425;51.102;17.208;2022-11-20T06:50:16;-4.80;99.90
40696;DHT22;40425;51.102;17.208;2022-11-20T06:55:17;-4.80;99.90
40696;DHT22;40425;51.102;17.208;2022-11-20T07:00:18;-4.70;99.90
40696;DHT22;40425;51.102;17.208;2022-11-20T07:05:19;-4.50;99.90
40696;DHT22;40425;51.102;17.208;2022-11-20T07:10:20;-4.30;99.90
40696;DHT22;40425;51.102;17.208;2022-11-20T07:15:23;-4.10;99.90
40696;DHT22;40425;51.102;17.208;2022-11-20T07:20:25;-4.00;99.90
40696;DHT22;40425;51.102;17.208;2022-11-20T07:25:27;-3.90;99.90
40696;DHT22;40425;51.102;17.208;2022-11-20T07:30:31;-3.80;99.90
40696;DHT22;40425;51.102;17.208;2022-11-20T07:35:32;-3.60;99.90
40696;DHT22;40425;51.102;17.208;2022-11-20T07:40:33;-3.50;99.90
40696;DHT22;40425;51.102;17.208;2022-11-20T07:45:34;-3.40;99.90
40696;DHT22;40425;51.102;17.208;2022-11-20T07:50:35;-3.10;99.90
40696;DHT22;40425;51.102;17.208;2022-11-20T07:55:36;-2.90;99.90
40696;DHT22;40425;51.102;17.208;2022-11-20T08:00:36;-2.70;99.90
40696;DHT22;40425;51.102;17.208;2022-11-20T08:05:37;-2.60;99.90
40696;DHT22;40425;51.102;17.208;2022-11-20T08:10:38;-2.50;99.90
40696;DHT22;40425;51.102;17.208;2022-11-20T08:15:39;-2.50;99.90
40696;DHT22;40425;51.102;17.208;2022-11-20T08:20:40;-2.30;99.90
40696;DHT22;40425;51.102;17.208;2022-11-20T08:25:41;-2.20;99.90
40696;DHT22;40425;51.102;17.208;2022-11-20T08:30:42;-2.10;99.90
40696;DHT22;40425;51.102;17.208;2022-11-20T08:35:43;-1.80;99.90
40696;DHT22;40425;51.102;17.208;2022-11-20T08:40:44;-1.70;99.90
40696;DHT22;40425;51.102;17.208;2022-11-20T08:46:04;-1.70;99.90
40696;DHT22;40425;51.102;17.208;2022-11-20T08:51:05;-1.50;99.90
40696;DHT22;40425;51.102;17.208;2022-11-20T08:56:07;-1.40;99.90
40696;DHT22;40425;51.102;17.208;2022-11-20T09:01:08;-1.20;99.90
40696;DHT22;40425;51.102;17.208;2022-11-20T09:06:08;-1.10;99.90
40696;DHT22;40425;51.102;17.208;2022-11-20T09:11:09;-1.00;99.90
40696;DHT22;40425;51.102;17.208;2022-11-20T09:16:10;-0.80;99.90
40696;DHT22;40425;51.102;17.208;2022-11-20T09:21:12;-0.70;99.90
40696;DHT22;40425;51.102;17.208;2022-11-20T09:26:14;-0.60;99.90
40696;DHT22;40425;51.102;17.208;2022-11-20T09:31:25;-0.50;99.90
40696;DHT22;40425;51.102;17.208;2022-11-20T09:36:27;-0.40;99.90
40696;DHT22;40425;51.102;17.208;2022-11-20T09:47:08;-0.10;99.90
40696;DHT22;40425;51.102;17.208;2022-11-20T09:57:21;0.10;99.90
40696;DHT22;40425;51.102;17.208;2022-11-20T10:02:37;0.20;99.90
40696;DHT22;40425;51.102;17.208;2022-11-20T10:07:47;0.20;99.90
40696;DHT22;40425;51.102;17.208;2022-11-20T10:13:12;0.30;99.90
40696;DHT22;40425;51.102;17.208;2022-11-20T10:29:14;0.60;99.90
40696;DHT22;40425;51.102;17.208;2022-11-20T10:34:57;0.70;99.90
40696;DHT22;40425;51.102;17.208;2022-11-20T10:51:01;1.10;99.90
40696;DHT22;40425;51.102;17.208;2022-11-20T10:56:19;1.20;99.90
40696;DHT22;40425;51.102;17.208;2022-11-20T11:01:21;1.30;99.90
40696;DHT22;40425;51.102;17.208;2022-11-20T11:06:39;1.40;99.90
40696;DHT22;40425;51.102;17.208;2022-11-20T11:11:41;1.40;99.90
40696;DHT22;40425;51.102;17.208;2022-11-20T11:16:58;1.50;99.90
40696;DHT22;40425;51.102;17.208;2022-11-20T11:21:59;1.60;99.90
40696;DHT22;40425;51.102;17.208;2022-11-20T11:27:10;1.60;99.90
40696;DHT22;40425;51.102;17.208;2022-11-20T11:32:20;1.60;99.90
40696;DHT22;40425;51.102;17.208;2022-11-20T11:37:22;1.60;99.90
40696;DHT22;40425;51.102;17.208;2022-11-20T11:42:23;1.70;99.90
40696;DHT22;40425;51.102;17.208;2022-11-20T11:47:43;1.70;99.90
40696;DHT22;40425;51.102;17.208;2022-11-20T11:53:21;1.80;99.90
40696;DHT22;40425;51.102;17.208;2022-11-20T11:58:45;2.00;99.90
40696;DHT22;40425;51.102;17.208;2022-11-20T12:04:17;2.10;99.90
40696;DHT22;40425;51.102;17.208;2022-11-20T12:09:24;2.20;99.90
40696;DHT22;40425;51.102;17.208;2022-11-20T12:14:37;2.20;99.90
40696;DHT22;40425;51.102;17.208;2022-11-20T12:19:40;2.30;99.90
40696;DHT22;40425;51.102;17.208;2022-11-20T12:24:55;2.30;99.90
40696;DHT22;40425;51.102;17.208;2022-11-20T12:30:11;2.30;99.90
40696;DHT22;40425;51.102;17.208;2022-11-20T12:35:44;2.30;99.90
40696;DHT22;40425;51.102;17.208;2022-11-20T12:56:54;2.30;99.90
40696;DHT22;40425;51.102;17.208;2022-11-20T13:02:24;2.20;99.90
40696;DHT22;40425;51.102;17.208;2022-11-20T13:07:27;2.30;99.90
40696;DHT22;40425;51.102;17.208;2022-11-20T13:12:40;2.30;99.90
40696;DHT22;40425;51.102;17.208;2022-11-20T13:18:04;2.40;99.90
40696;DHT22;40425;51.102;17.208;2022-11-20T13:23:05;2.30;99.90
40696;DHT22;40425;51.102;17.208;2022-11-20T13:33:30;2.30;99.90
40696;DHT22;40425;51.102;17.208;2022-11-20T13:38:53;2.30;99.90
40696;DHT22;40425;51.102;17.208;2022-11-20T13:43:59;2.30;99.90
40696;DHT22;40425;51.102;17.208;2022-11-20T13:49:18;2.30;99.90
40696;DHT22;40425;51.102;17.208;2022-11-20T14:04:53;2.30;99.90
40696;DHT22;40425;51.102;17.208;2022-11-20T14:09:56;2.30;99.90
40696;DHT22;40425;51.102;17.208;2022-11-20T14:14:58;2.20;99.90
40696;DHT22;40425;51.102;17.208;2022-11-20T14:20:05;2.20;99.90
40696;DHT22;40425;51.102;17.208;2022-11-20T14:25:19;2.10;99.90
40696;DHT22;40425;51.102;17.208;2022-11-20T14:30:42;2.10;99.90
40696;DHT22;40425;51.102;17.208;2022-11-20T14:35:51;2.00;99.90
40696;DHT22;40425;51.102;17.208;2022-11-20T14:40:53;1.90;99.90
40696;DHT22;40425;51.102;17.208;2022-11-20T14:46:08;1.70;99.90
40696;DHT22;40425;51.102;17.208;2022-11-20T14:51:31;1.50;99.90
40696;DHT22;40425;51.102;17.208;2022-11-20T14:56:32;1.50;99.90
40696;DHT22;40425;51.102;17.208;2022-11-20T15:01:34;1.40;99.90
40696;DHT22;40425;51.102;17.208;2022-11-20T15:06:36;1.20;99.90
40696;DHT22;40425;51.102;17.208;2022-11-20T15:11:37;0.90;99.90
40696;DHT22;40425;51.102;17.208;2022-11-20T15:16:39;0.90;99.90
40696;DHT22;40425;51.102;17.208;2022-11-20T15:21:40;1.00;99.90
40696;DHT22;40425;51.102;17.208;2022-11-20T15:26:41;1.00;99.90
40696;DHT22;40425;51.102;17.208;2022-11-20T15:31:43;0.90;99.90
40696;DHT22;40425;51.102;17.208;2022-11-20T15:36:45;0.80;99.90
40696;DHT22;40425;51.102;17.208;2022-11-20T15:41:47;0.80;99.90
40696;DHT22;40425;51.102;17.208;2022-11-20T15:46:52;0.60;99.90
40696;DHT22;40425;51.102;17.208;2022-11-20T15:51:53;0.50;99.90
40696;DHT22;40425;51.102;17.208;2022-11-20T15:56:54;0.50;99.90
40696;DHT22;40425;51.102;17.208;2022-11-20T16:01:55;0.40;99.90
40696;DHT22;40425;51.102;17.208;2022-11-20T16:06:57;0.30;99.90
40696;DHT22;40425;51.102;17.208;2022-11-20T16:12:00;0.30;99.90
40696;DHT22;40425;51.102;17.208;2022-11-20T16:17:01;0.30;99.90
40696;DHT22;40425;51.102;17.208;2022-11-20T16:22:02;0.20;99.90
40696;DHT22;40425;51.102;17.208;2022-11-20T16:27:03;0.10;99.90
40696;DHT22;40425;51.102;17.208;2022-11-20T16:32:05;0.10;99.90
40696;DHT22;40425;51.102;17.208;2022-11-20T16:37:07;0.10;99.90
40696;DHT22;40425;51.102;17.208;2022-11-20T16:42:10;-0.10;99.90
40696;DHT22;40425;51.102;17.208;2022-11-20T16:47:12;-0.20;99.90
40696;DHT22;40425;51.102;17.208;2022-11-20T16:52:13;-0.30;99.90
40696;DHT22;40425;51.102;17.208;2022-11-20T16:57:15;-0.30;99.90
40696;DHT22;40425;51.102;17.208;2022-11-20T17:02:18;-0.30;99.90
40696;DHT22;40425;51.102;17.208;2022-11-20T17:07:23;-0.40;99.90
40696;DHT22;40425;51.102;17.208;2022-11-20T17:12:25;-0.50;99.90
40696;DHT22;40425;51.102;17.208;2022-11-20T17:17:26;-0.70;99.90
40696;DHT22;40425;51.102;17.208;2022-11-20T17:22:27;-0.80;99.90
40696;DHT22;40425;51.102;17.208;2022-11-20T17:27:27;-0.90;99.90
40696;DHT22;40425;51.102;17.208;2022-11-20T17:32:28;-0.90;99.90
40696;DHT22;40425;51.102;17.208;2022-11-20T17:37:29;-1.00;99.90
40696;DHT22;40425;51.102;17.208;2022-11-20T17:42:30;-1.10;99.90
40696;DHT22;40425;51.102;17.208;2022-11-20T17:47:36;-1.10;99.90
40696;DHT22;40425;51.102;17.208;2022-11-20T17:52:37;-1.20;99.90
40696;DHT22;40425;51.102;17.208;2022-11-20T17:57:37;-1.20;99.90
40696;DHT22;40425;51.102;17.208;2022-11-20T18:02:56;-1.10;99.90
40696;DHT22;40425;51.102;17.208;2022-11-20T18:07:58;-1.00;99.90
40696;DHT22;40425;51.102;17.208;2022-11-20T18:12:59;-1.00;99.90
40696;DHT22;40425;51.102;17.208;2022-11-20T18:18:03;-1.00;99.90
40696;DHT22;40425;51.102;17.208;2022-11-20T18:23:05;-0.80;99.90
40696;DHT22;40425;51.102;17.208;2022-11-20T18:28:06;-0.90;99.90
40696;DHT22;40425;51.102;17.208;2022-11-20T18:33:06;-1.00;99.90
40696;DHT22;40425;51.102;17.208;2022-11-20T18:38:07;-1.00;99.90
40696;DHT22;40425;51.102;17.208;2022-11-20T18:43:09;-0.80;99.90
40696;DHT22;40425;51.102;17.208;2022-11-20T18:48:32;-0.70;99.90
40696;DHT22;40425;51.102;17.208;2022-11-20T18:53:37;-0.80;99.90
40696;DHT22;40425;51.102;17.208;2022-11-20T18:58:39;-1.00;99.90
40696;DHT22;40425;51.102;17.208;2022-11-20T19:03:40;-1.20;99.90
40696;DHT22;40425;51.102;17.208;2022-11-20T19:08:43;-1.20;99.90
40696;DHT22;40425;51.102;17.208;2022-11-20T19:13:45;-1.30;99.90
40696;DHT22;40425;51.102;17.208;2022-11-20T19:18:46;-1.30;99.90
40696;DHT22;40425;51.102;17.208;2022-11-20T19:23:50;-1.20;99.90
40696;DHT22;40425;51.102;17.208;2022-11-20T19:28:51;-0.90;99.90
40696;DHT22;40425;51.102;17.208;2022-11-20T19:34:00;-0.70;99.90
40696;DHT22;40425;51.102;17.208;2022-11-20T19:39:04;-0.50;99.90
40696;DHT22;40425;51.102;17.208;2022-11-20T19:44:09;-0.50;99.90
40696;DHT22;40425;51.102;17.208;2022-11-20T19:49:12;-0.50;99.90
40696;DHT22;40425;51.102;17.208;2022-11-20T19:54:14;-0.50;99.90
40696;DHT22;40425;51.102;17.208;2022-11-20T19:59:16;-0.50;99.90
40696;DHT22;40425;51.102;17.208;2022-11-20T20:04:18;-0.50;99.90
40696;DHT22;40425;51.102;17.208;2022-11-20T20:09:21;-0.30;99.90
40696;DHT22;40425;51.102;17.208;2022-11-20T20:14:26;-0.10;99.90
40696;DHT22;40425;51.102;17.208;2022-11-20T20:19:28;0.00;99.90
40696;DHT22;40425;51.102;17.208;2022-11-20T20:24:29;0.10;99.90
40696;DHT22;40425;51.102;17.208;2022-11-20T20:29:29;0.30;99.90
40696;DHT22;40425;51.102;17.208;2022-11-20T20:34:31;0.20;99.90
40696;DHT22;40425;51.102;17.208;2022-11-20T20:39:32;0.00;99.90
40696;DHT22;40425;51.102;17.208;2022-11-20T20:44:33;0.00;99.90
40696;DHT22;40425;51.102;17.208;2022-11-20T20:49:53;0.00;99.90
40696;DHT22;40425;51.102;17.208;2022-11-20T20:54:54;0.00;99.90
40696;DHT22;40425;51.102;17.208;2022-11-20T20:59:55;-0.20;99.90
40696;DHT22;40425;51.102;17.208;2022-11-20T21:04:56;-0.30;99.90
40696;DHT22;40425;51.102;17.208;2022-11-20T21:09:57;-0.50;99.90
40696;DHT22;40425;51.102;17.208;2022-11-20T21:14:58;-0.70;99.90
40696;DHT22;40425;51.102;17.208;2022-11-20T21:19:59;-0.80;99.90
40696;DHT22;40425;51.102;17.208;2022-11-20T21:25:00;-0.90;99.90
40696;DHT22;40425;51.102;17.208;2022-11-20T21:30:01;-1.00;99.90
40696;DHT22;40425;51.102;17.208;2022-11-20T21:35:03;-1.00;99.90
40696;DHT22;40425;51.102;17.208;2022-11-20T21:40:05;-1.00;99.90
40696;DHT22;40425;51.102;17.208;2022-11-20T21:45:07;-1.00;99.90
40696;DHT22;40425;51.102;17.208;2022-11-20T21:50:10;-1.10;99.90
40696;DHT22;40425;51.102;17.208;2022-11-20T21:55:14;-1.20;99.90
40696;DHT22;40425;51.102;17.208;2022-11-20T22:00:15;-1.20;99.90
40696;DHT22;40425;51.102;17.208;2022-11-20T22:05:16;-1.30;99.90
40696;DHT22;40425;51.102;17.208;2022-11-20T22:10:17;-1.50;99.90
40696;DHT22;40425;51.102;17.208;2022-11-20T22:15:18;-1.80;99.90
40696;DHT22;40425;51.102;17.208;2022-11-20T22:20:19;-1.70;99.90
40696;DHT22;40425;51.102;17.208;2022-11-20T22:25:20;-1.80;99.90
40696;DHT22;40425;51.102;17.208;2022-11-20T22:30:21;-1.80;99.90
40696;DHT22;40425;51.102;17.208;2022-11-20T22:35:21;-2.00;99.90
40696;DHT22;40425;51.102;17.208;2022-11-20T22:40:22;-2.10;99.90
40696;DHT22;40425;51.102;17.208;2022-11-20T22:45:23;-2.00;99.90
40696;DHT22;40425;51.102;17.208;2022-11-20T22:50:24;-1.90;99.90
40696;DHT22;40425;51.102;17.208;2022-11-20T22:55:25;-1.90;99.90
40696;DHT22;40425;51.102;17.208;2022-11-20T23:00:26;-2.00;99.90
40696;DHT22;40425;51.102;17.208;2022-11-20T23:05:26;-2.00;99.90
40696;DHT22;40425;51.102;17.208;2022-11-20T23:10:27;-1.90;99.90
40696;DHT22;40425;51.102;17.208;2022-11-20T23:15:28;-2.20;99.90
40696;DHT22;40425;51.102;17.208;2022-11-20T23:20:29;-2.50;99.90
40696;DHT22;40425;51.102;17.208;2022-11-20T23:25:30;-2.50;99.90
40696;DHT22;40425;51.102;17.208;2022-11-20T23:30:31;-2.40;99.90
40696;DHT22;40425;51.102;17.208;2022-11-20T23:35:36;-2.70;99.90
40696;DHT22;40425;51.102;17.208;2022-11-20T23:40:37;-2.70;99.90
40696;DHT22;40425;51.102;17.208;2022-11-20T23:45:38;-2.60;99.90
40696;DHT22;40425;51.102;17.208;2022-11-20T23:50:40;-2.60;99.90
40696;DHT22;40425;51.102;17.208;2022-11-20T23:55:50;-2.60;99.90
